Time;durP1;ratioP1;P1;durP2;ratioP2;P2;SDS_P1;SDS_P2;PMS_P1;PMS_P2;Temp;Humidity;BMP_temperature;BMP_pressure;BME280_temperature;BME280_humidity;BME280_pressure;Samples;Min_cycle;Max_cycle;Signal;HPM_P1;HPM_P2
2022/05/20 00:01:54;;;;;;;;;4.00;2.00;;;;;20.98;45.70;101675.53;5039110;28;45356;-64
2022/05/20 00:04:19;;;;;;;;;3.25;0.50;;;;;20.95;45.57;101676.56;5036036;28;45592;-64
2022/05/20 00:06:44;;;;;;;;;1.50;1.50;;;;;20.87;45.21;101665.59;5045114;28;45506;-64
2022/05/20 00:09:10;;;;;;;;;0.50;0.50;;;;;20.85;45.44;101666.63;5041192;28;45521;-63
2022/05/20 00:11:35;;;;;;;;;1.50;1.00;;;;;20.83;45.08;101663.22;5039003;28;45609;-64
2022/05/20 00:14:01;;;;;;;;;1.50;0.50;;;;;20.81;45.33;101657.97;5044394;28;45688;-64
2022/05/20 00:16:27;;;;;;;;;2.25;1.25;;;;;20.77;45.45;101664.38;5038735;28;45616;-64
2022/05/20 00:18:52;;;;;;;;;3.25;1.00;;;;;20.75;45.37;101657.47;5047169;28;46292;-64
2022/05/20 00:21:18;;;;;;;;;0.50;0.50;;;;;20.69;45.29;101652.53;5044740;28;45746;-64
2022/05/20 00:23:43;;;;;;;;;2.25;2.25;;;;;20.67;45.73;101655.28;5042115;28;45730;-65
2022/05/20 00:26:08;;;;;;;;;0.75;0.75;;;;;20.65;45.03;101652.72;5039760;28;45490;-64
2022/05/20 00:28:34;;;;;;;;;0.75;0.75;;;;;20.67;45.52;101657.91;5039868;28;45280;-64
2022/05/20 00:31:09;;;;;;;;;2.00;1.00;;;;;20.63;45.68;101643.16;5040869;28;45516;-64
2022/05/20 00:33:36;;;;;;;;;2.00;2.00;;;;;20.55;45.96;101645.38;5040302;28;45842;-64
2022/05/20 00:36:01;;;;;;;;;1.00;0.75;;;;;20.54;46.08;101654.22;5042013;28;46527;-65
2022/05/20 00:38:27;;;;;;;;;3.00;1.00;;;;;20.55;45.74;101653.28;5040397;28;45482;-63
2022/05/20 00:40:54;;;;;;;;;4.25;1.75;;;;;20.59;45.62;101650.38;5048461;28;45260;-65
2022/05/20 00:43:26;;;;;;;;;1.75;1.25;;;;;20.64;46.05;101650.16;5040903;28;45366;-65
2022/05/20 00:45:54;;;;;;;;;2.00;1.00;;;;;20.67;45.88;101655.28;5042622;28;45523;-64
2022/05/20 00:48:20;;;;;;;;;2.00;2.00;;;;;20.63;45.75;101644.03;5045836;28;45630;-64
2022/05/20 00:51:15;;;;;;;;;1.00;1.00;;;;;20.60;45.73;101632.75;5044702;28;45422;-65
2022/05/20 00:53:46;;;;;;;;;2.00;1.00;;;;;20.69;45.38;101647.25;5034774;28;45586;-65
2022/05/20 00:56:17;;;;;;;;;1.25;1.00;;;;;20.65;45.18;101650.06;5039195;28;45568;-66
2022/05/20 00:58:43;;;;;;;;;2.50;1.00;;;;;20.63;45.27;101643.16;5040262;28;45301;-65
2022/05/20 01:01:09;;;;;;;;;2.00;0.75;;;;;20.64;45.37;101644.88;5038473;28;45301;-64
2022/05/20 01:03:36;;;;;;;;;2.00;2.00;;;;;20.65;45.39;101647.44;5039820;28;45446;-64
2022/05/20 01:06:02;;;;;;;;;1.00;0.75;;;;;20.65;45.35;101644.78;5040716;28;45517;-64
2022/05/20 01:08:31;;;;;;;;;1.00;1.00;;;;;20.64;45.19;101631.66;5044301;28;45523;-64
2022/05/20 01:10:57;;;;;;;;;1.75;1.00;;;;;20.65;44.87;101628.94;5038930;28;47460;-64
2022/05/20 01:13:28;;;;;;;;;1.75;0.75;;;;;20.65;44.72;101620.16;5045339;28;45513;-64
2022/05/20 01:15:55;;;;;;;;;2.00;1.25;;;;;20.63;45.11;101616.75;5038847;28;45491;-64
2022/05/20 01:18:21;;;;;;;;;1.75;1.75;;;;;20.63;44.89;101614.13;5042710;28;45580;-64
2022/05/20 01:20:51;;;;;;;;;1.00;1.00;;;;;20.52;44.88;101609.41;5044877;28;45258;-63
2022/05/20 01:23:19;;;;;;;;;2.25;1.25;;;;;20.51;44.61;101601.59;5042181;28;45379;-63
2022/05/20 01:25:48;;;;;;;;;0.75;0.75;;;;;20.52;44.37;101601.50;5039265;28;46402;-64
2022/05/20 01:28:14;;;;;;;;;0.50;0.50;;;;;20.51;44.36;101591.88;5042155;28;45951;-64
2022/05/20 01:30:45;;;;;;;;;2.75;2.00;;;;;20.52;44.14;101593.56;5046966;28;45525;-64
2022/05/20 01:33:11;;;;;;;;;2.00;2.00;;;;;20.51;44.51;101585.75;5040013;28;45359;-65
2022/05/20 01:35:41;;;;;;;;;1.00;0.00;;;;;20.50;44.28;101586.69;5036558;28;47795;-64
2022/05/20 01:38:08;;;;;;;;;2.00;1.00;;;;;20.46;44.32;101577.22;5042732;28;45269;-64
2022/05/20 01:40:56;;;;;;;;;0.50;0.50;;;;;20.44;44.24;101576.47;5035916;28;45580;-64
2022/05/20 01:43:48;;;;;;;;;1.25;1.25;;;;;20.39;44.59;101573.16;5044266;28;46146;-64
2022/05/20 01:46:13;;;;;;;;;2.00;2.00;;;;;20.38;44.45;101568.81;5046354;28;45517;-64
2022/05/20 01:48:55;;;;;;;;;1.50;1.50;;;;;20.35;44.61;101570.69;5038475;28;45346;-65
2022/05/20 01:51:24;;;;;;;;;1.50;1.50;;;;;20.32;45.06;101562.97;5037249;28;45712;-64
2022/05/20 01:53:58;;;;;;;;;1.50;1.00;;;;;20.30;44.62;101561.34;5035612;28;45710;-64
2022/05/20 01:56:46;;;;;;;;;4.50;0.50;;;;;20.26;44.80;101560.66;5039970;28;45469;-65
2022/05/20 01:59:34;;;;;;;;;3.00;1.00;;;;;20.23;45.64;101555.56;5030987;28;45438;-65
2022/05/20 02:02:08;;;;;;;;;0.50;0.50;;;;;20.21;45.42;101562.69;5037983;28;45468;-65
2022/05/20 02:04:45;;;;;;;;;4.00;1.50;;;;;20.25;45.32;101555.47;5035708;28;45355;-65
2022/05/20 02:07:18;;;;;;;;;2.00;0.75;;;;;20.26;45.16;101559.81;5037260;28;45377;-65
2022/05/20 02:09:57;;;;;;;;;1.75;1.00;;;;;20.23;45.45;101550.28;5041193;28;45236;-65
2022/05/20 02:12:27;;;;;;;;;1.25;0.25;;;;;20.21;45.42;101546.84;5042327;28;45297;-66
2022/05/20 02:15:04;;;;;;;;;1.00;1.00;;;;;20.21;45.75;101551.28;5038951;28;45354;-66
2022/05/20 02:17:34;;;;;;;;;4.50;1.75;;;;;20.14;45.73;101542.00;5037812;28;48352;-66
2022/05/20 02:20:30;;;;;;;;;1.25;1.25;;;;;20.16;46.05;101537.47;5039734;28;45311;-65
2022/05/20 02:23:01;;;;;;;;;1.50;0.50;;;;;20.15;46.18;101526.06;5040015;28;45442;-67
2022/05/20 02:25:34;;;;;;;;;2.00;1.00;;;;;20.13;46.19;101525.31;5037037;28;45405;-67
2022/05/20 02:28:11;;;;;;;;;1.25;1.00;;;;;20.08;46.83;101535.28;5039553;28;47438;-66
2022/05/20 02:30:37;;;;;;;;;2.00;1.00;;;;;20.05;46.50;101531.00;5045771;28;45632;-66
2022/05/20 02:33:16;;;;;;;;;2.75;1.50;;;;;20.05;46.89;101531.00;5039294;28;45315;-66
2022/05/20 02:35:42;;;;;;;;;2.00;1.00;;;;;20.03;46.97;101526.75;5043516;28;45309;-66
2022/05/20 02:38:09;;;;;;;;;2.75;2.00;;;;;20.03;47.14;101524.13;5039518;28;46131;-65
2022/05/20 02:40:36;;;;;;;;;3.00;1.50;;;;;20.06;47.51;101523.94;5041977;28;45243;-64
2022/05/20 02:43:01;;;;;;;;;2.00;1.75;;;;;20.07;47.27;101512.47;5037003;28;45431;-65
2022/05/20 02:45:27;;;;;;;;;2.25;2.00;;;;;20.08;47.94;101514.16;5038229;28;45565;-64
2022/05/20 02:47:52;;;;;;;;;4.00;1.50;;;;;20.02;48.80;101525.91;5039426;28;45480;-64
2022/05/20 02:50:17;;;;;;;;;2.50;2.50;;;;;20.01;47.77;101533.88;5036621;28;45519;-65
2022/05/20 02:52:43;;;;;;;;;3.00;2.25;;;;;20.02;47.92;101510.09;5045955;28;45353;-64
2022/05/20 02:55:08;;;;;;;;;1.50;1.50;;;;;20.00;48.09;101503.16;5036792;28;45321;-64
2022/05/20 02:57:35;;;;;;;;;2.00;2.00;;;;;19.98;48.71;101524.34;5037468;28;45318;-64
2022/05/20 03:05:29;;;;;;;;;4.75;2.75;;;;;19.95;48.54;101518.41;5053441;28;45284;-65
2022/05/20 03:07:54;;;;;;;;;2.00;2.00;;;;;19.91;49.02;101516.88;5046231;28;45568;-64
2022/05/20 03:10:20;;;;;;;;;2.00;2.00;;;;;19.90;48.58;101520.44;5044422;28;45265;-65
2022/05/20 03:12:45;;;;;;;;;3.00;2.25;;;;;19.83;50.79;101526.97;5040508;28;45311;-65
2022/05/20 03:15:13;;;;;;;;;1.25;1.25;;;;;19.74;49.72;101521.25;5045591;28;45316;-65
2022/05/20 03:17:39;;;;;;;;;6.50;3.00;;;;;19.73;50.43;101518.69;5036927;28;45298;-65
2022/05/20 03:20:08;;;;;;;;;6.25;3.50;;;;;19.73;50.21;101519.53;5044353;28;45646;-64
2022/05/20 03:22:34;;;;;;;;;3.00;2.00;;;;;19.75;49.61;101515.03;5041544;28;45478;-64
2022/05/20 03:25:00;;;;;;;;;3.75;3.75;;;;;19.72;50.51;101517.84;5050648;28;45425;-65
2022/05/20 03:27:25;;;;;;;;;4.25;2.00;;;;;19.72;49.93;101514.34;5041588;28;45687;-66
2022/05/20 03:29:51;;;;;;;;;3.00;3.00;;;;;19.66;49.50;101510.28;5047187;28;45322;-66
2022/05/20 03:32:16;;;;;;;;;5.00;2.25;;;;;19.59;51.29;101515.94;5041204;28;45295;-67
2022/05/20 03:34:43;;;;;;;;;0.00;0.00;;;;;19.52;52.74;101525.91;5040921;28;45275;-64
2022/05/20 03:37:09;;;;;;;;;5.50;5.00;;;;;19.47;50.79;101522.69;5039862;28;47172;-64
2022/05/20 03:39:35;;;;;;;;;5.00;2.00;;;;;19.44;51.08;101501.75;5042641;28;45214;-64
2022/05/20 03:42:02;;;;;;;;;3.00;3.00;;;;;19.45;51.49;101514.00;5040138;28;45616;-63
2022/05/20 03:44:27;;;;;;;;;3.00;2.00;;;;;19.39;52.20;101512.50;5040637;28;45599;-64
2022/05/20 03:46:55;;;;;;;;;5.25;4.00;;;;;19.38;51.38;101504.69;5047140;28;46010;-64
2022/05/20 03:49:25;;;;;;;;;5.25;4.75;;;;;19.37;51.97;101501.19;5040485;28;45868;-64
2022/05/20 03:51:51;;;;;;;;;6.00;6.00;;;;;19.37;51.29;101490.66;5037080;28;45693;-63
2022/05/20 03:54:19;;;;;;;;;5.75;4.75;;;;;19.36;52.41;101483.69;5046161;28;45411;-63
2022/05/20 03:56:45;;;;;;;;;6.25;3.75;;;;;19.36;52.37;101477.56;5037029;28;45430;-62
2022/05/20 03:59:11;;;;;;;;;4.50;4.50;;;;;19.34;52.05;101477.66;5042732;28;45473;-63
2022/05/20 04:04:31;;;;;;;;;5.25;4.75;;;;;19.33;52.70;101483.84;5051782;28;46566;-64
2022/05/20 04:06:58;;;;;;;;;8.75;6.00;;;;;19.28;53.23;101474.50;5038697;28;46216;-65
2022/05/20 04:09:23;;;;;;;;;2.00;1.75;;;;;19.26;52.84;101477.19;5040922;28;45598;-64
2022/05/20 04:11:53;;;;;;;;;5.00;4.00;;;;;19.23;53.19;101474.72;5040989;28;45141;-63
2022/05/20 04:14:19;;;;;;;;;5.75;3.00;;;;;19.24;54.12;101473.81;5040130;28;45564;-64
2022/05/20 04:16:44;;;;;;;;;5.00;5.00;;;;;19.23;53.38;101472.09;5044929;28;45453;-64
2022/05/20 04:19:11;;;;;;;;;7.00;5.00;;;;;19.22;53.79;101464.25;5042076;28;45548;-64
2022/05/20 04:21:37;;;;;;;;;4.00;3.00;;;;;19.27;53.51;101470.16;5040728;28;45422;-62
2022/05/20 04:24:03;;;;;;;;;4.50;3.00;;;;;19.29;54.08;101484.09;5040381;28;45409;-61
2022/05/20 04:26:29;;;;;;;;;5.00;4.00;;;;;19.31;54.06;101485.72;5041279;28;46054;-62
2022/05/20 04:28:54;;;;;;;;;5.25;3.25;;;;;19.32;54.18;101479.50;5041979;28;45248;-62
2022/05/20 04:31:19;;;;;;;;;3.75;3.75;;;;;19.36;54.39;101482.84;5038948;28;45275;-62
2022/05/20 04:33:45;;;;;;;;;6.00;5.00;;;;;19.34;54.64;101484.69;5041339;28;45364;-60
2022/05/20 04:36:10;;;;;;;;;7.00;6.00;;;;;19.35;54.57;101491.66;5037513;28;45575;-61
2022/05/20 04:38:36;;;;;;;;;6.50;5.75;;;;;19.38;54.31;101484.44;5040917;28;45394;-63
2022/05/20 04:49:13;;;;;;;;;8.50;5.00;;;;;19.66;54.43;101496.22;5039719;28;45485;-67
2022/05/20 04:51:40;;;;;;;;;6.25;4.25;;;;;19.78;54.33;101502.63;5036027;28;47004;-66
2022/05/20 04:56:52;;;;;;;;;5.75;5.75;;;;;20.03;53.90;101503.00;5036628;28;45228;-67
2022/05/20 04:59:20;;;;;;;;;7.00;6.00;;;;;20.16;53.82;101506.66;5043012;28;45575;-67
2022/05/20 05:01:46;;;;;;;;;7.75;4.25;;;;;20.25;53.36;101508.81;5040759;28;45248;-66
2022/05/20 05:04:11;;;;;;;;;9.25;6.75;;;;;20.32;53.54;101518.06;5042336;28;45526;-67
2022/05/20 05:06:36;;;;;;;;;7.00;7.00;;;;;20.38;53.75;101516.03;5039693;28;46315;-66
2022/05/20 05:09:03;;;;;;;;;7.75;7.00;;;;;20.45;53.27;101513.00;5039854;28;45252;-67
2022/05/20 05:11:28;;;;;;;;;5.50;4.00;;;;;20.47;53.55;101511.13;5050507;28;45224;-65
2022/05/20 05:13:53;;;;;;;;;6.75;5.00;;;;;20.48;52.97;101504.06;5039191;28;45483;-66
2022/05/20 05:16:19;;;;;;;;;4.50;4.50;;;;;20.48;53.04;101506.69;5039464;28;46064;-64
2022/05/20 05:18:44;;;;;;;;;6.00;4.75;;;;;20.49;53.27;101509.25;5039951;28;45464;-65
2022/05/20 05:21:14;;;;;;;;;7.25;5.50;;;;;20.46;53.30;101520.00;5047209;28;45425;-63
2022/05/20 05:23:40;;;;;;;;;10.00;6.00;;;;;20.43;53.24;101524.59;5036950;28;47111;-64
2022/05/20 05:26:05;;;;;;;;;8.75;7.00;;;;;20.43;53.37;101506.97;5036477;28;45294;-64
2022/05/20 05:28:31;;;;;;;;;11.00;6.75;;;;;20.38;53.58;101505.47;5035685;28;45486;-64
2022/05/20 05:30:58;;;;;;;;;7.75;6.75;;;;;20.37;53.13;101512.53;5037409;28;45601;-63
2022/05/20 05:33:24;;;;;;;;;4.25;4.25;;;;;20.36;53.73;101495.00;5037712;28;45419;-65
2022/05/20 05:35:50;;;;;;;;;3.00;2.50;;;;;20.32;53.39;101491.69;5037644;28;46205;-65
2022/05/20 05:38:15;;;;;;;;;9.00;6.50;;;;;20.31;53.69;101483.84;5036339;28;45303;-63
2022/05/20 05:40:41;;;;;;;;;8.75;7.50;;;;;20.32;53.50;101475.84;5047753;28;45402;-65
2022/05/20 05:43:06;;;;;;;;;6.25;6.25;;;;;20.32;53.88;101478.47;5038230;28;45527;-65
2022/05/20 05:45:34;;;;;;;;;10.25;8.75;;;;;20.30;53.91;101480.34;5038323;28;45242;-62
2022/05/20 05:48:06;;;;;;;;;3.00;1.25;;;;;20.30;53.92;101487.44;5038342;28;45697;-64
2022/05/20 05:50:33;;;;;;;;;11.00;7.00;;;;;20.24;53.90;101487.78;5039780;28;45313;-63
2022/05/20 05:53:08;;;;;;;;;9.00;6.75;;;;;20.18;53.85;101486.31;5037263;28;45347;-65
2022/05/20 05:55:34;;;;;;;;;17.75;10.75;;;;;20.14;54.50;101460.19;5045447;28;45326;-66
2022/05/20 05:57:59;;;;;;;;;5.75;5.75;;;;;20.15;54.20;101452.19;5039329;28;45368;-62
2022/05/20 06:00:25;;;;;;;;;8.25;7.00;;;;;20.13;54.20;101442.66;5036162;28;45497;-62
2022/05/20 06:02:50;;;;;;;;;10.25;8.50;;;;;20.09;55.36;101441.97;5034162;28;45477;-65
2022/05/20 06:05:16;;;;;;;;;10.00;8.00;;;;;20.03;54.96;101431.78;5042690;28;45663;-63
2022/05/20 06:07:42;;;;;;;;;10.00;8.00;;;;;19.99;55.64;101449.53;5039514;28;45770;-60
2022/05/20 06:10:08;;;;;;;;;8.25;5.50;;;;;19.96;56.46;101462.91;5043003;28;45436;-61
2022/05/20 06:12:33;;;;;;;;;11.00;9.50;;;;;19.93;57.51;101478.91;5038070;28;45983;-61
2022/05/20 06:15:06;;;;;;;;;11.25;9.25;;;;;19.85;58.26;101493.47;5043702;28;45550;-65
2022/05/20 06:17:32;;;;;;;;;10.00;8.75;;;;;19.82;58.58;101499.72;5045061;28;45775;-61
2022/05/20 06:19:58;;;;;;;;;9.25;8.00;;;;;19.85;58.44;101504.00;5036641;28;45250;-61
2022/05/20 06:22:23;;;;;;;;;11.00;8.00;;;;;19.90;58.94;101499.34;5038678;28;45225;-61
2022/05/20 06:24:48;;;;;;;;;7.75;6.75;;;;;19.97;59.34;101482.22;5037223;28;45275;-61
2022/05/20 06:27:14;;;;;;;;;12.25;8.25;;;;;20.01;59.99;101473.19;5038275;28;45292;-61
2022/05/20 06:29:39;;;;;;;;;10.25;8.25;;;;;20.08;60.51;101461.38;5038614;28;45421;-62
2022/05/20 06:32:05;;;;;;;;;17.50;11.75;;;;;20.13;60.34;101434.72;5038769;28;45212;-62
2022/05/20 06:39:48;;;;;;;;;15.50;9.00;;;;;20.14;60.14;101391.56;5040058;28;45871;-62
2022/05/20 06:40:10;;;;;;;;;10.00;7.50;;;;;19.92;61.29;101366.41;5040154;28;45235;-61
2022/05/20 06:42:36;;;;;;;;;8.00;6.75;;;;;19.83;61.89;101382.75;5041748;28;45458;-62
2022/05/20 06:45:01;;;;;;;;;11.50;10.00;;;;;19.87;61.82;101404.53;5038231;28;45986;-60
2022/05/20 06:47:26;;;;;;;;;8.75;8.25;;;;;19.90;62.56;101407.84;5039303;28;45397;-61
2022/05/20 06:49:52;;;;;;;;;10.75;9.50;;;;;19.98;62.67;101431.16;5047812;28;45267;-60
2022/05/20 06:52:17;;;;;;;;;10.25;8.50;;;;;19.87;63.24;101452.03;5043301;28;45311;-62
2022/05/20 06:54:43;;;;;;;;;11.50;10.00;;;;;19.81;63.61;101410.13;5041882;28;45465;-60
2022/05/20 06:57:08;;;;;;;;;12.50;9.00;;;;;19.85;63.15;101377.41;5039367;28;45526;-61
2022/05/20 06:59:36;;;;;;;;;13.50;9.25;;;;;19.88;63.00;101332.38;5040114;28;45455;-60
2022/05/20 07:02:01;;;;;;;;;11.00;10.00;;;;;19.82;63.23;101217.50;5040885;28;45317;-61
2022/05/20 07:04:29;;;;;;;;;12.00;10.00;;;;;19.69;64.14;101183.09;5038871;28;46168;-62
2022/05/20 07:06:55;;;;;;;;;12.50;11.75;;;;;19.65;65.17;101228.19;5038820;28;45297;-60
2022/05/20 07:09:21;;;;;;;;;14.50;11.25;;;;;19.68;64.71;101220.09;5041194;28;45702;-60
2022/05/20 07:11:46;;;;;;;;;11.00;10.00;;;;;19.69;66.31;101227.94;5033307;28;45616;-61
2022/05/20 07:14:11;;;;;;;;;12.75;9.50;;;;;19.66;65.33;101212.28;5036126;28;46354;-62
2022/05/20 07:16:37;;;;;;;;;11.25;11.00;;;;;19.71;64.84;101215.50;5041016;28;45468;-61
2022/05/20 07:19:02;;;;;;;;;13.25;10.75;;;;;19.75;66.38;101219.66;5041317;28;45458;-60
2022/05/20 07:21:27;;;;;;;;;10.75;10.75;;;;;19.82;66.24;101220.13;5040345;28;45254;-61
2022/05/20 07:23:53;;;;;;;;;15.25;10.75;;;;;19.93;66.01;101230.91;5040784;28;46209;-61
2022/05/20 07:26:19;;;;;;;;;14.00;13.25;;;;;20.06;65.86;101225.78;5040514;28;45499;-63
2022/05/20 07:28:45;;;;;;;;;12.75;10.75;;;;;20.21;66.36;101232.75;5040284;28;45546;-61
2022/05/20 07:31:11;;;;;;;;;10.00;10.00;;;;;20.32;65.56;101254.09;5039382;28;45522;-62
2022/05/20 07:33:37;;;;;;;;;14.00;11.00;;;;;20.42;66.00;101272.03;5040636;28;45483;-62
2022/05/20 07:36:03;;;;;;;;;12.75;9.75;;;;;20.55;66.14;101270.38;5040036;28;45310;-62
2022/05/20 07:38:29;;;;;;;;;11.75;11.00;;;;;20.60;64.21;101263.84;5040797;28;45571;-63
2022/05/20 07:40:56;;;;;;;;;13.75;12.00;;;;;20.71;64.92;101286.16;5039144;28;45584;-64
2022/05/20 07:43:22;;;;;;;;;13.00;12.50;;;;;20.81;64.75;101293.41;5040065;28;46238;-64
2022/05/20 07:45:48;;;;;;;;;12.00;9.00;;;;;20.86;64.39;101286.06;5040325;28;45563;-64
2022/05/20 07:48:14;;;;;;;;;12.25;10.25;;;;;20.94;63.96;101310.19;5038112;28;45486;-62
2022/05/20 07:50:45;;;;;;;;;9.75;8.50;;;;;20.98;64.22;101354.94;5044434;28;45413;-61
2022/05/20 07:53:23;;;;;;;;;16.00;11.50;;;;;20.83;64.83;101397.22;5044552;28;45382;-61
2022/05/20 07:56:00;;;;;;;;;16.00;12.25;;;;;20.77;65.77;101397.56;5040244;28;45648;-62
2022/05/20 07:58:32;;;;;;;;;17.50;17.50;;;;;20.80;65.22;101425.56;5040193;28;45365;-62
2022/05/20 08:00:59;;;;;;;;;29.75;25.00;;;;;20.83;66.55;101441.28;5038381;28;45521;-62
2022/05/20 08:06:17;;;;;;;;;16.25;14.50;;;;;20.63;78.33;101369.34;5037214;28;45470;-63
2022/05/20 08:08:43;;;;;;;;;18.00;16.00;;;;;20.27;78.33;101350.34;5040396;28;45587;-66
2022/05/20 08:11:09;;;;;;;;;16.75;14.00;;;;;19.99;75.39;101345.78;5038802;28;45328;-65
2022/05/20 08:13:34;;;;;;;;;19.25;17.25;;;;;19.80;76.59;101322.25;5044122;28;45479;-65
2022/05/20 08:16:00;;;;;;;;;18.00;15.00;;;;;19.74;75.83;101320.81;5029886;28;45388;-63
2022/05/20 08:18:25;;;;;;;;;16.00;15.50;;;;;19.72;76.79;101314.78;5039011;28;45446;-63
2022/05/20 08:20:51;;;;;;;;;20.00;17.50;;;;;19.73;77.14;101319.09;5038883;28;45335;-63
2022/05/20 08:23:17;;;;;;;;;22.25;20.25;;;;;19.73;76.68;101312.97;5040129;28;46401;-64
2022/05/20 08:25:42;;;;;;;;;32.25;29.00;;;;;19.63;88.23;101346.94;5037294;28;46059;-63
2022/05/20 08:28:07;;;;;;;;;18.00;15.00;;;;;19.34;92.19;101322.13;5035991;28;45389;-64
2022/05/20 08:30:33;;;;;;;;;20.25;19.50;;;;;19.19;83.36;101291.34;5037683;28;45440;-64
2022/05/20 08:32:58;;;;;;;;;18.25;17.00;;;;;19.04;84.39;101300.94;5039476;28;45258;-63
2022/05/20 08:35:26;;;;;;;;;19.50;16.00;;;;;18.99;84.26;101315.28;5037305;28;45255;-63
2022/05/20 08:37:52;;;;;;;;;19.25;17.00;;;;;19.08;83.53;101336.72;5039214;28;45386;-63
2022/05/20 08:40:27;;;;;;;;;20.25;19.50;;;;;19.16;83.51;101317.88;5039082;28;45578;-63
2022/05/20 08:42:55;;;;;;;;;22.50;18.50;;;;;19.20;82.39;101387.06;5039253;28;46761;-63
2022/05/20 08:45:25;;;;;;;;;16.00;13.75;;;;;19.15;82.06;101440.84;5032224;28;45721;-62
2022/05/20 08:47:52;;;;;;;;;22.25;17.75;;;;;19.07;83.39;101487.84;5037719;28;45454;-62
2022/05/20 08:50:31;;;;;;;;;25.25;21.00;;;;;19.00;89.66;101507.50;5040844;28;45476;-63
2022/05/20 08:52:57;;;;;;;;;23.75;19.75;;;;;18.97;92.60;101462.03;5038940;28;45471;-63
2022/05/20 08:55:23;;;;;;;;;34.50;26.00;;;;;18.83;100.00;101453.06;5040089;28;45450;-65
2022/05/20 08:57:57;;;;;;;;;28.00;21.75;;;;;18.59;100.00;101409.47;5038184;28;45517;-66
2022/05/20 09:00:24;;;;;;;;;21.50;18.00;;;;;18.44;100.00;101366.38;5041054;28;45359;-67
2022/05/20 09:02:49;;;;;;;;;25.00;20.50;;;;;18.42;100.00;101359.44;5036103;28;45417;-67
2022/05/20 09:05:31;;;;;;;;;23.75;20.00;;;;;18.42;100.00;101356.81;5036659;28;45142;-67
2022/05/20 09:08:05;;;;;;;;;25.25;23.75;;;;;18.38;100.00;101353.50;5044568;28;45342;-68
2022/05/20 09:10:38;;;;;;;;;25.00;23.00;;;;;18.40;100.00;101345.53;5043706;28;45425;-67
2022/05/20 09:16:24;;;;;;;;;25.25;23.50;;;;;18.39;100.00;101355.19;5037236;28;45336;-67
2022/05/20 09:19:04;;;;;;;;;41.25;33.00;;;;;18.43;100.00;101354.13;5040074;28;45303;-67
2022/05/20 09:21:38;;;;;;;;;26.50;21.75;;;;;18.55;100.00;101352.66;5038869;28;45969;-67
2022/05/20 09:24:07;;;;;;;;;20.75;20.00;;;;;18.62;100.00;101354.06;5046626;28;45319;-66
2022/05/20 09:26:37;;;;;;;;;22.25;20.75;;;;;18.61;100.00;101339.16;5039100;28;45278;-67
2022/05/20 09:29:11;;;;;;;;;39.75;34.75;;;;;18.70;100.00;101324.72;5030566;28;45371;-66
2022/05/20 09:31:40;;;;;;;;;33.75;27.50;;;;;18.82;100.00;101311.78;5038732;28;45439;-66
2022/05/20 09:34:15;;;;;;;;;28.75;25.75;;;;;18.89;100.00;101306.19;5036985;28;47525;-66
2022/05/20 09:36:56;;;;;;;;;26.00;22.75;;;;;18.86;100.00;101349.34;5038116;28;46723;-66
2022/05/20 09:39:40;;;;;;;;;35.50;30.00;;;;;18.78;100.00;101454.19;5039526;28;45325;-65
2022/05/20 09:42:17;;;;;;;;;49.00;39.00;;;;;18.65;100.00;101524.22;5044074;28;45281;-65
2022/05/20 09:44:46;;;;;;;;;49.00;40.00;;;;;18.67;100.00;101477.59;5040577;28;46087;-65
2022/05/20 09:47:24;;;;;;;;;30.50;26.75;;;;;18.75;100.00;101262.97;5039529;28;45535;-66
2022/05/20 09:49:57;;;;;;;;;34.00;30.00;;;;;18.73;100.00;101308.75;5049384;28;45573;-67
2022/05/20 09:52:25;;;;;;;;;39.25;31.75;;;;;18.72;100.00;101284.22;5046796;28;45296;-66
2022/05/20 09:55:00;;;;;;;;;21.25;19.75;;;;;18.82;100.00;101263.50;5043453;28;47633;-67
2022/05/20 09:57:36;;;;;;;;;34.50;30.00;;;;;18.89;100.00;101219.28;5031968;28;45477;-66
2022/05/20 10:00:05;;;;;;;;;35.25;30.75;;;;;19.15;100.00;101237.13;5042191;28;45308;-67
2022/05/20 10:02:56;;;;;;;;;27.50;25.25;;;;;19.47;100.00;101198.44;5039329;28;45401;-66
2022/05/20 10:05:30;;;;;;;;;29.00;25.25;;;;;19.69;100.00;101211.25;5030254;28;46424;-67
2022/05/20 10:08:11;;;;;;;;;32.50;29.75;;;;;19.96;100.00;101225.47;5038169;28;45231;-66
2022/05/20 10:10:42;;;;;;;;;37.25;31.50;;;;;20.26;100.00;101217.53;5037187;28;45301;-65
2022/05/20 10:13:36;;;;;;;;;35.50;30.50;;;;;20.58;100.00;101218.22;5046625;28;45662;-66
2022/05/20 10:16:19;;;;;;;;;41.25;34.00;;;;;20.84;100.00;101221.91;5043838;28;45561;-67
2022/05/20 10:18:58;;;;;;;;;37.25;31.75;;;;;20.91;100.00;101225.00;5036282;28;45766;-66
2022/05/20 10:21:48;;;;;;;;;42.75;34.50;;;;;20.96;100.00;101249.31;5044737;28;45327;-64
2022/05/20 10:24:51;;;;;;;;;34.00;31.00;;;;;20.83;100.00;101306.53;5045839;28;45674;-65
2022/05/20 10:27:25;;;;;;;;;30.25;26.00;;;;;20.63;100.00;101332.38;5044071;28;46241;-65
2022/05/20 10:33:05;;;;;;;;;45.00;36.25;;;;;20.73;100.00;101294.81;5044111;28;45217;-65
2022/05/20 10:35:52;;;;;;;;;35.50;32.00;;;;;20.86;100.00;101267.56;5052702;28;45592;-66
2022/05/20 10:38:23;;;;;;;;;38.25;32.75;;;;;21.02;100.00;101243.66;5043436;28;45660;-65
2022/05/20 10:40:51;;;;;;;;;34.00;31.25;;;;;21.27;100.00;101258.84;5043350;28;45454;-66
2022/05/20 10:49:25;;;;;;;;;33.25;29.50;;;;;22.06;100.00;101243.06;5051589;28;45806;-71
2022/05/20 10:52:11;;;;;;;;;36.75;32.00;;;;;22.29;100.00;101240.66;5051178;28;45260;-65
2022/05/20 10:54:58;;;;;;;;;31.50;31.50;;;;;22.59;100.00;101235.03;5047236;28;45336;-65
2022/05/20 10:58:06;;;;;;;;;37.50;34.25;;;;;22.74;100.00;101233.97;5053033;28;45473;-66
2022/05/20 11:00:52;;;;;;;;;36.50;31.00;;;;;22.94;100.00;101248.47;5032348;28;45695;-65
2022/05/20 11:03:55;;;;;;;;;39.25;33.50;;;;;23.13;100.00;101243.56;5051123;28;45295;-66
2022/05/20 11:06:35;;;;;;;;;42.25;34.00;;;;;23.25;100.00;101247.97;5051873;28;45303;-60
2022/05/20 11:09:12;;;;;;;;;46.25;35.25;;;;;23.44;100.00;101259.91;5043622;28;45476;-59
2022/05/20 11:11:58;;;;;;;;;41.00;34.50;;;;;23.62;100.00;101279.78;5050968;28;45463;-60
2022/05/20 11:15:01;;;;;;;;;41.75;32.25;;;;;23.61;100.00;101284.25;5044348;28;45185;-59
2022/05/20 11:17:56;;;;;;;;;34.25;30.25;;;;;23.38;100.00;101300.97;5052546;28;45472;-59
2022/05/20 11:20:49;;;;;;;;;35.00;31.00;;;;;23.30;100.00;101311.31;5042378;28;45372;-60
2022/05/20 11:23:36;;;;;;;;;38.00;33.00;;;;;23.33;100.00;101327.84;5034801;28;45485;-63
2022/05/20 11:26:16;;;;;;;;;35.75;32.00;;;;;23.44;100.00;101324.44;5041213;28;45594;-67
2022/05/20 11:28:59;;;;;;;;;38.25;32.50;;;;;23.59;100.00;101325.13;5047781;28;45593;-66
2022/05/20 11:31:49;;;;;;;;;32.00;29.50;;;;;23.83;100.00;101322.50;5044538;28;45638;-67
2022/05/20 11:34:52;;;;;;;;;37.75;31.00;;;;;24.04;100.00;101318.25;5051048;28;46132;-65
2022/05/20 11:37:17;;;;;;;;;35.75;30.25;;;;;24.32;100.00;101316.19;5038764;28;45457;-65
2022/05/20 11:40:00;;;;;;;;;36.75;30.75;;;;;24.64;100.00;101309.28;5045669;28;45375;-63
2022/05/20 11:42:35;;;;;;;;;34.50;30.00;;;;;25.02;100.00;101295.63;5043818;28;45383;-64
2022/05/20 11:45:14;;;;;;;;;33.75;28.25;;;;;25.26;100.00;101300.84;5047578;28;45663;-65
2022/05/20 11:48:05;;;;;;;;;27.75;26.25;;;;;25.42;100.00;101308.41;5030740;28;45362;-66
2022/05/20 11:50:39;;;;;;;;;28.25;28.25;;;;;25.49;100.00;101306.97;5037306;28;45585;-65
2022/05/20 11:53:25;;;;;;;;;22.00;20.25;;;;;25.32;98.40;101304.81;5039463;28;46038;-65
2022/05/20 11:55:56;;;;;;;;;27.50;25.00;;;;;25.09;86.17;101306.66;5038483;28;45521;-66
2022/05/20 11:58:28;;;;;;;;;26.25;25.00;;;;;25.08;100.00;101291.66;5037742;28;45746;-65
2022/05/20 12:00:54;;;;;;;;;24.25;23.00;;;;;25.40;100.00;101273.09;5038912;28;45546;-63
2022/05/20 12:03:27;;;;;;;;;23.75;20.25;;;;;25.74;100.00;101260.56;5041459;28;46686;-64
2022/05/20 12:05:53;;;;;;;;;23.50;21.50;;;;;25.92;99.15;101255.53;5038440;28;45749;-62
2022/05/20 12:08:37;;;;;;;;;21.00;19.25;;;;;26.01;100.00;101268.91;5048500;28;45659;-63
2022/05/20 12:11:26;;;;;;;;;25.00;19.50;;;;;26.17;97.29;101268.47;5036359;28;45329;-62